メインページ
METAR-TAF:

METAR-TAF

空港 :

シアトル・タコマ国際空港

シアトル / タコマ, ワシントン, アメリカ合衆国

緯度: 47-26-41N, 経度: 122-18-49W, 海抜: 130m

現時点の気象観測

当レポートは12分前の21:53(UTC)に作成
西/北西の風 6kt
気温 12°C
湿度 38%
気圧 1023 hPa
視程: 16.1km
高度25000ftの雲はほとんどない

METAR: KSEA 202153Z 29006KT 10SM FEW250 12/M02 A3022 RMK AO2 SLP239 T01221017

時間: 14:05 (22:05 UTC)

予報

当レポートは1時間2分前の21:03(UTC)に作成
予報は20日の 21時(UTC)から 21日の 24時(UTC)まで有効
北/北西の風 6kt
視程: 10km
高度25000ftの雲はほとんどない
21日の 0300時(UTC)から
北東の風 4kt
視程: 10km
晴天
21日の 0900時(UTC)から
東/南東の風 4kt
視程: 10km
高度25000ftの雲は散在している
21日の 1600時(UTC)から
南/南西の風 4kt
視程: 10km
高度25000ftの雲は散在している

TAF: KSEA 202103Z 2021/2124 33006KT P6SM FEW250 FM210300 04004KT P6SM SKC FM210900 11004KT P6SM SCT250 FM211600 20004KT P6SM SCT250

4,000以上の空港の気象観測と天気予報(METAR報とTAF報)

利用可能な観測所は地図上に黄色い丸と赤い丸で示す。

丸の上にカーソルを重ねると観測所名を参照できる。

次にクリックすると気象観測と天気予報を参照できる。

マップの切り替え:黒色「×」印の緑ボタンをクリックして拡大、「-」印の緑ボタンをクリックして縮小、緑色の三角印をクリックして隣りの地図に切り替え


METAR-TAF: